sensor_id;sensor_type;location;lat;lon;timestamp;temperature;humidity
37544;DHT22;23385;52.038;20.322;2022-10-17T13:17:05;23.60;99.90
37544;DHT22;23385;52.038;20.322;2022-10-17T13:19:49;23.60;99.90
37544;DHT22;23385;52.038;20.322;2022-10-17T13:22:28;23.60;99.90
37544;DHT22;23385;52.038;20.322;2022-10-17T13:25:13;23.60;99.90
37544;DHT22;23385;52.038;20.322;2022-10-17T13:27:38;23.60;99.90
37544;DHT22;23385;52.038;20.322;2022-10-17T13:30:34;23.40;99.90
37544;DHT22;23385;52.038;20.322;2022-10-17T13:33:46;23.40;99.90
37544;DHT22;23385;52.038;20.322;2022-10-17T13:36:22;23.40;99.90
37544;DHT22;23385;52.038;20.322;2022-10-17T13:38:48;23.40;99.90
37544;DHT22;23385;52.038;20.322;2022-10-17T13:41:15;23.50;99.90
37544;DHT22;23385;52.038;20.322;2022-10-17T13:43:43;23.40;99.90
37544;DHT22;23385;52.038;20.322;2022-10-17T13:46:16;23.30;99.90
37544;DHT22;23385;52.038;20.322;2022-10-17T13:48:45;23.20;99.90
37544;DHT22;23385;52.038;20.322;2022-10-17T13:51:12;22.90;99.90
37544;DHT22;23385;52.038;20.322;2022-10-17T13:53:55;22.80;99.90
37544;DHT22;23385;52.038;20.322;2022-10-17T13:56:56;22.80;99.90
37544;DHT22;23385;52.038;20.322;2022-10-17T13:59:54;22.70;99.90
37544;DHT22;23385;52.038;20.322;2022-10-17T14:02:31;22.50;99.90
37544;DHT22;23385;52.038;20.322;2022-10-17T14:05:12;22.50;99.90
37544;DHT22;23385;52.038;20.322;2022-10-17T14:07:58;22.50;99.90
37544;DHT22;23385;52.038;20.322;2022-10-17T14:10:29;22.40;99.90
37544;DHT22;23385;52.038;20.322;2022-10-17T14:12:56;22.30;99.90
37544;DHT22;23385;52.038;20.322;2022-10-17T14:15:25;22.40;99.90
37544;DHT22;23385;52.038;20.322;2022-10-17T14:18:03;22.30;99.90
37544;DHT22;23385;52.038;20.322;2022-10-17T14:20:30;22.30;99.90
37544;DHT22;23385;52.038;20.322;2022-10-17T14:22:57;22.20;99.90
37544;DHT22;23385;52.038;20.322;2022-10-17T14:25:41;22.20;99.90
37544;DHT22;23385;52.038;20.322;2022-10-17T14:28:17;22.00;99.90
37544;DHT22;23385;52.038;20.322;2022-10-17T14:30:48;21.90;99.90
37544;DHT22;23385;52.038;20.322;2022-10-17T14:33:27;21.80;99.90
37544;DHT22;23385;52.038;20.322;2022-10-17T14:35:55;21.70;99.90
37544;DHT22;23385;52.038;20.322;2022-10-17T14:38:21;21.60;99.90
37544;DHT22;23385;52.038;20.322;2022-10-17T14:43:25;21.50;99.90
37544;DHT22;23385;52.038;20.322;2022-10-17T14:45:52;21.30;99.90
37544;DHT22;23385;52.038;20.322;2022-10-17T14:48:23;21.30;99.90
37544;DHT22;23385;52.038;20.322;2022-10-17T14:51:19;21.20;99.90
37544;DHT22;23385;52.038;20.322;2022-10-17T14:54:33;21.20;99.90
37544;DHT22;23385;52.038;20.322;2022-10-17T15:00:16;20.90;99.90
37544;DHT22;23385;52.038;20.322;2022-10-17T15:02:42;20.90;99.90
37544;DHT22;23385;52.038;20.322;2022-10-17T15:05:09;20.90;99.90
37544;DHT22;23385;52.038;20.322;2022-10-17T15:07:35;20.70;99.90
37544;DHT22;23385;52.038;20.322;2022-10-17T15:10:02;20.70;99.90
37544;DHT22;23385;52.038;20.322;2022-10-17T15:12:29;20.70;99.90
37544;DHT22;23385;52.038;20.322;2022-10-17T15:15:24;20.60;99.90
37544;DHT22;23385;52.038;20.322;2022-10-17T15:18:01;20.50;99.90
37544;DHT22;23385;52.038;20.322;2022-10-17T15:20:29;20.40;99.90
37544;DHT22;23385;52.038;20.322;2022-10-17T15:23:00;20.30;99.90
37544;DHT22;23385;52.038;20.322;2022-10-17T15:25:27;20.20;99.90
37544;DHT22;23385;52.038;20.322;2022-10-17T15:27:54;20.10;99.90
37544;DHT22;23385;52.038;20.322;2022-10-17T15:30:23;20.00;99.90
37544;DHT22;23385;52.038;20.322;2022-10-17T15:32:49;19.90;99.90
37544;DHT22;23385;52.038;20.322;2022-10-17T15:35:16;19.80;99.90
37544;DHT22;23385;52.038;20.322;2022-10-17T15:37:42;19.70;99.90
37544;DHT22;23385;52.038;20.322;2022-10-17T15:40:13;19.60;99.90
37544;DHT22;23385;52.038;20.322;2022-10-17T15:42:39;19.40;99.90
37544;DHT22;23385;52.038;20.322;2022-10-17T15:45:11;19.30;99.90
37544;DHT22;23385;52.038;20.322;2022-10-17T15:47:37;19.20;99.90
37544;DHT22;23385;52.038;20.322;2022-10-17T15:50:05;19.10;99.90
37544;DHT22;23385;52.038;20.322;2022-10-17T15:52:31;18.90;99.90
37544;DHT22;23385;52.038;20.322;2022-10-17T15:55:21;18.80;99.90
37544;DHT22;23385;52.038;20.322;2022-10-17T15:58:18;18.70;99.90
37544;DHT22;23385;52.038;20.322;2022-10-17T16:00:59;18.60;99.90
37544;DHT22;23385;52.038;20.322;2022-10-17T16:03:26;18.40;99.90
37544;DHT22;23385;52.038;20.322;2022-10-17T16:05:55;18.30;99.90
37544;DHT22;23385;52.038;20.322;2022-10-17T16:08:22;18.10;99.90
37544;DHT22;23385;52.038;20.322;2022-10-17T16:10:48;18.00;99.90
37544;DHT22;23385;52.038;20.322;2022-10-17T16:13:20;17.90;99.90
37544;DHT22;23385;52.038;20.322;2022-10-17T16:16:17;17.70;99.90
37544;DHT22;23385;52.038;20.322;2022-10-17T16:18:53;17.40;99.90
37544;DHT22;23385;52.038;20.322;2022-10-17T16:27:53;17.00;99.90
37544;DHT22;23385;52.038;20.322;2022-10-17T16:30:20;17.00;99.90
37544;DHT22;23385;52.038;20.322;2022-10-17T16:32:46;16.90;99.90
37544;DHT22;23385;52.038;20.322;2022-10-17T16:35:19;16.80;99.90
37544;DHT22;23385;52.038;20.322;2022-10-17T16:38:29;16.70;99.90
37544;DHT22;23385;52.038;20.322;2022-10-17T16:41:01;16.60;99.90
37544;DHT22;23385;52.038;20.322;2022-10-17T16:43:33;16.50;99.90
37544;DHT22;23385;52.038;20.322;2022-10-17T16:46:03;16.40;99.90
37544;DHT22;23385;52.038;20.322;2022-10-17T16:48:28;16.40;99.90
37544;DHT22;23385;52.038;20.322;2022-10-17T16:50:54;16.40;99.90
37544;DHT22;23385;52.038;20.322;2022-10-17T16:53:21;16.30;99.90
37544;DHT22;23385;52.038;20.322;2022-10-17T16:56:14;16.30;99.90
37544;DHT22;23385;52.038;20.322;2022-10-17T16:58:48;16.30;99.90
37544;DHT22;23385;52.038;20.322;2022-10-17T17:01:16;16.20;99.90
37544;DHT22;23385;52.038;20.322;2022-10-17T17:03:44;16.20;99.90
37544;DHT22;23385;52.038;20.322;2022-10-17T17:06:26;16.20;99.90
37544;DHT22;23385;52.038;20.322;2022-10-17T17:08:54;16.20;99.90
37544;DHT22;23385;52.038;20.322;2022-10-17T17:19:13;16.30;99.90
37544;DHT22;23385;52.038;20.322;2022-10-17T17:21:45;16.30;99.90
37544;DHT22;23385;52.038;20.322;2022-10-17T17:24:19;16.30;99.90
37544;DHT22;23385;52.038;20.322;2022-10-17T17:26:50;16.30;99.90
37544;DHT22;23385;52.038;20.322;2022-10-17T17:29:17;16.40;99.90
37544;DHT22;23385;52.038;20.322;2022-10-17T17:32:47;16.30;99.90
